createdAt,value
2023-03-28T00:07:45.807Z,5.40
2023-03-28T00:17:49.214Z,5.40
2023-03-28T00:27:51.274Z,5.30
2023-03-28T00:37:54.928Z,5.30
2023-03-28T00:48:01.860Z,5.30
2023-03-28T00:58:10.037Z,5.30
2023-03-28T01:08:17.107Z,5.30
2023-03-28T01:18:23.138Z,5.30
2023-03-28T01:28:38.613Z,5.30
2023-03-28T01:38:51.297Z,5.30
2023-03-28T01:49:03.883Z,5.30
2023-03-28T01:59:15.872Z,5.30
2023-03-28T02:09:24.104Z,5.30
2023-03-28T02:19:29.669Z,5.40
2023-03-28T02:29:31.773Z,5.50
2023-03-28T02:39:59.392Z,5.50
2023-03-28T02:50:18.158Z,5.50
2023-03-28T03:00:22.111Z,5.50
2023-03-28T03:10:24.100Z,5.50
2023-03-28T03:20:28.576Z,5.50
2023-03-28T03:30:30.650Z,5.50
2023-03-28T03:40:34.070Z,5.50
2023-03-28T03:50:36.019Z,5.60
2023-03-28T04:00:39.313Z,5.70
2023-03-28T04:10:41.300Z,5.60
2023-03-28T04:20:47.775Z,5.80
2023-03-28T04:30:49.714Z,5.90
2023-03-28T04:40:53.226Z,6.00
2023-03-28T04:50:55.544Z,6.10
2023-03-28T05:01:01.445Z,6.30
2023-03-28T05:11:03.581Z,6.20
2023-03-28T05:21:07.416Z,6.40
2023-03-28T05:31:09.526Z,6.40
2023-03-28T05:41:12.946Z,6.50
2023-03-28T05:51:14.902Z,6.40
2023-03-28T06:01:18.293Z,6.20
2023-03-28T06:11:20.269Z,6.10
2023-03-28T06:21:23.708Z,6.00
2023-03-28T06:31:25.840Z,6.00
2023-03-28T06:41:29.209Z,5.90
2023-03-28T06:51:31.501Z,5.90
2023-03-28T07:01:34.994Z,6.20
2023-03-28T07:11:37.017Z,6.30
2023-03-28T07:21:40.418Z,6.40
2023-03-28T07:31:42.607Z,6.60
2023-03-28T07:41:46.044Z,6.70
2023-03-28T07:51:48.213Z,6.80
2023-03-28T08:01:51.818Z,7.00
2023-03-28T08:11:53.915Z,7.40
2023-03-28T08:33:02.734Z,7.60
2023-03-28T08:43:20.942Z,7.80
2023-03-28T08:53:28.779Z,8.00
2023-03-28T09:03:37.387Z,8.30
2023-03-28T09:13:51.754Z,8.50
2023-03-28T09:24:17.303Z,8.60
2023-03-28T09:34:23.626Z,8.70
2023-03-28T09:44:43.676Z,8.60
2023-03-28T09:54:54.798Z,8.60
2023-03-28T10:16:05.138Z,8.80
2023-03-28T10:48:20.282Z,8.40
2023-03-28T10:58:30.559Z,8.40
2023-03-28T11:08:56.092Z,8.30
2023-03-28T11:19:14.857Z,8.40
2023-03-28T11:29:40.187Z,8.60
2023-03-28T11:39:51.243Z,8.70
2023-03-28T11:49:59.155Z,8.40
2023-03-28T12:00:06.485Z,8.20
2023-03-28T12:10:19.785Z,7.90
2023-03-28T12:20:30.895Z,7.80
2023-03-28T12:30:40.070Z,7.70
2023-03-28T12:40:53.452Z,7.60
2023-03-28T12:51:01.686Z,7.80
2023-03-28T13:01:45.655Z,8.00
2023-03-28T13:11:58.183Z,8.00
2023-03-28T13:22:00.263Z,7.90
2023-03-28T13:32:05.070Z,8.00
2023-03-28T13:42:26.691Z,8.00
2023-03-28T13:52:31.876Z,8.20
2023-03-28T14:02:37.393Z,8.30
2023-03-28T14:12:41.215Z,8.40
2023-03-28T14:22:57.424Z,9.20
2023-03-28T14:33:15.811Z,9.70
2023-03-28T17:21:07.439Z,8.90
2023-03-28T17:31:10.958Z,8.80
2023-03-28T17:41:14.771Z,8.80
2023-03-28T17:51:17.803Z,8.60
2023-03-28T18:01:21.106Z,8.60
2023-03-28T18:11:23.409Z,8.60
2023-03-28T18:21:26.908Z,8.40
2023-03-28T18:31:29.265Z,8.30
2023-03-28T18:41:32.719Z,8.20
2023-03-28T18:51:35.644Z,8.20
2023-03-28T19:01:39.122Z,8.10
2023-03-28T19:11:42.033Z,8.20
2023-03-28T19:21:48.272Z,8.20
2023-03-28T19:31:54.730Z,8.20
2023-03-28T19:41:59.290Z,8.20
2023-03-28T19:52:01.299Z,8.20
2023-03-28T20:02:05.772Z,8.20
2023-03-28T20:12:08.956Z,8.20
2023-03-28T20:22:13.509Z,8.20
2023-03-28T20:32:15.847Z,8.30
2023-03-28T20:42:19.362Z,8.30
2023-03-28T20:52:21.384Z,8.30
2023-03-28T21:02:25.935Z,8.30
2023-03-28T21:12:27.957Z,8.40
2023-03-28T21:22:31.281Z,8.30
2023-03-28T21:32:33.410Z,8.30
2023-03-28T21:43:27.228Z,8.20
2023-03-28T21:53:32.177Z,8.20
2023-03-28T22:03:36.560Z,8.30
2023-03-28T22:13:40.151Z,8.40
2023-03-28T22:23:43.885Z,8.40
2023-03-28T22:33:48.155Z,8.40
2023-03-28T22:43:50.177Z,8.50
2023-03-28T22:53:53.770Z,8.50
2023-03-28T23:03:55.778Z,8.50
2023-03-28T23:13:59.078Z,8.60
2023-03-28T23:24:00.974Z,8.70
2023-03-28T23:34:04.374Z,8.80
2023-03-28T23:44:06.577Z,8.90
2023-03-28T23:54:09.977Z,9.00
